Kerteminde, Denmark
Current Conditions -  °F | °C
As of 7:20 AM on Saturday 29 Nov 2014 (Local Time) from EKOD Reporting Station
Broken Clouds Broken Clouds  
Wind Chill: 28°   Ceiling: 1900
Heat Index: 37°   Visibility: 6mi
Dew Point: 34°   Wind: 17mph
Humidity: 87%   Direction: 100°E
Pressure: 30.24"   Gusts: NA
Location:  55.45°N, 10.66°E
Report Text: EKOD 290620Z 10015KT 9999 BKN019 BKN022 03/01 Q1024
Loading
Personal Weather Stations






























Interactive Weather Map New forecast layout! Learn more

10-Day Weather Forecast

Advertisements
Track Severe Weather on mobile